Terminal Aerodrome Forecast
Issued by NWS

Home | Current Version | Previous Version | Text Only | Print | Product List | Glossary On
Versions: 1 2 3 4 5 6 7 8 9 10 11 12 13 14 15 16 17 18 19 20
000
FTUS43 KBIS 210248 AAA
TAFDIK
TAF AMD
KDIK 210248Z 2103/2124 14011G19KT P6SM FEW090 SCT250 WS020/19040KT
     FM210700 18011G19KT P6SM BKN090 BKN200
     FM211100 22007KT P6SM FEW100 SCT250
     FM211900 32012KT P6SM FEW090 FEW200=

USA.gov is the U.S. government's official web portal to all federal, state and local government web resources and services.